.
WxDataArchive / Data Records for 2008-07-09
2008-07-08 July 2008 2008-07-10

Data Records for Wednesday, 09 July 2008

Time	Temp	Chill	HIndex	Humid	Dewpt	 Wind 	HiWind	WindDir	Rain 	Barom 
-----	----	-----	------	-----	-----	------	------	-------	-----	----- 
00:00	70.9	70.9	70.9	94	69.1	0	0	---	0.00	29.754 
00:05	70.9	70.9	70.9	94	69.1	0	0	---	0.00	29.764 
00:10	70.9	70.9	70.9	94	69.1	0	0	---	0.00	29.765 
00:15	70.9	70.9	70.9	94	69.1	0	1	315	0.00	29.766 
00:20	70.9	70.9	70.9	94	69.1	0	0	---	0.01	29.765 
00:25	70.8	70.8	70.8	94	69.0	0	1	315	0.00	29.763 
00:30	70.8	70.8	70.8	94	69.0	0	0	---	0.00	29.763 
00:35	70.8	70.8	70.8	95	69.3	0	0	---	0.00	29.763 
00:40	70.8	70.8	70.8	95	69.3	0	0	---	0.00	29.763 
00:45	70.8	70.8	70.8	95	69.3	0	0	---	0.00	29.762 
00:50	70.9	70.9	70.9	95	69.4	0	0	---	0.00	29.763 
00:55	70.9	70.9	70.9	95	69.4	0	1	315	0.00	29.763 
01:00	70.9	70.9	70.9	95	69.4	0	1	315	0.00	29.763 
01:05	70.9	70.9	70.9	95	69.4	0	1	315	0.00	29.762 
01:10	71.1	71.1	71.1	95	69.6	0	1	315	0.00	29.762 
01:15	71.1	71.1	71.1	95	69.6	0	2	315	0.00	29.762 
01:20	71.3	71.3	71.3	95	69.8	0	2	315	0.00	29.762 
01:25	71.5	71.5	71.5	95	70.0	0	1	315	0.00	29.761 
01:30	71.5	71.5	71.5	96	70.3	0	1	315	0.00	29.761 
01:35	71.6	71.6	71.6	96	70.4	0	1	315	0.00	29.761 
01:40	71.8	71.8	71.8	96	70.6	0	2	315	0.00	29.761 
01:45	72.0	72.0	72.0	96	70.8	0	2	315	0.00	29.759 
01:50	72.1	72.1	72.1	96	70.9	1	3	315	0.00	29.759 
01:55	72.1	72.1	72.1	96	70.9	1	2	315	0.00	29.760 
02:00	72.1	72.1	72.1	96	70.9	1	3	248	0.00	29.760 
02:05	72.1	72.1	72.1	96	70.9	1	2	248	0.00	29.757 
02:10	72.1	72.1	72.1	96	70.9	1	2	248	0.00	29.758 
02:15	72.1	72.1	72.1	96	70.9	1	2	248	0.00	29.756 
02:20	72.1	72.1	72.1	96	70.9	1	2	248	0.00	29.756 
02:25	72.0	72.0	72.0	95	70.5	1	3	270	0.00	29.755 
02:30	72.0	72.0	72.0	95	70.5	2	4	248	0.00	29.758 
02:35	72.0	72.0	72.0	95	70.5	1	3	225	0.00	29.756 
02:40	71.8	71.8	71.8	95	70.3	1	3	225	0.00	29.756 
02:45	71.8	71.8	71.8	95	70.3	1	4	270	0.00	29.760 
02:50	71.6	71.6	71.6	95	70.1	1	2	270	0.00	29.759 
02:55	71.5	71.5	71.5	94	69.7	1	3	270	0.00	29.758 
03:00	71.3	71.3	71.3	94	69.5	0	2	270	0.00	29.755 
03:05	71.1	71.1	71.1	94	69.3	1	3	225	0.00	29.756 
03:10	71.1	71.1	71.1	94	69.3	0	2	315	0.00	29.757 
03:15	71.1	71.1	71.1	94	69.3	1	3	315	0.00	29.758 
03:20	70.9	70.9	70.9	93	68.8	1	2	315	0.00	29.759 
03:25	70.9	70.9	70.9	93	68.8	0	2	315	0.00	29.760 
03:30	70.8	70.8	70.8	93	68.7	0	2	315	0.00	29.762 
03:35	70.8	70.8	70.8	93	68.7	1	2	315	0.00	29.762 
03:40	70.6	70.6	70.6	93	68.5	0	2	315	0.00	29.764 
03:45	70.6	70.6	70.6	93	68.5	0	1	315	0.00	29.763 
03:50	70.6	70.6	70.6	93	68.5	0	1	315	0.00	29.764 
03:55	70.4	70.4	70.4	93	68.3	0	1	315	0.00	29.766 
04:00	70.3	70.3	70.3	92	67.9	1	4	315	0.00	29.764 
04:05	70.1	70.1	70.1	92	67.7	1	2	292	0.00	29.761 
04:10	70.3	70.3	70.3	92	67.9	1	3	292	0.00	29.761 
04:15	70.1	70.1	70.1	92	67.7	1	3	292	0.00	29.767 
04:20	70.1	70.1	70.1	92	67.7	0	2	292	0.00	29.769 
04:25	70.1	70.1	70.1	92	67.7	1	2	292	0.00	29.769 
04:30	70.1	70.1	70.1	92	67.7	0	2	292	0.00	29.769 
04:35	69.9	69.9	69.9	92	67.5	1	2	292	0.00	29.771 
04:40	69.9	69.9	69.9	92	67.5	1	3	292	0.00	29.769 
04:45	69.6	69.6	69.6	92	67.2	0	2	248	0.00	29.767 
04:50	69.4	69.4	69.4	92	67.0	0	2	248	0.00	29.770 
04:55	69.3	69.3	69.3	92	66.9	0	2	248	0.00	29.772 
05:00	69.1	69.1	69.1	92	66.7	1	2	248	0.00	29.772 
05:05	68.9	68.9	68.9	92	66.5	0	3	248	0.00	29.773 
05:10	68.8	68.8	68.8	92	66.4	1	2	248	0.00	29.778 
05:15	68.6	68.6	68.6	92	66.2	1	3	248	0.00	29.777 
05:20	68.6	68.6	68.6	92	66.2	1	2	248	0.00	29.778 
05:25	68.4	68.4	68.4	92	66.0	1	2	248	0.00	29.783 
05:30	68.3	68.3	68.3	92	65.9	1	2	248	0.00	29.786 
05:35	68.3	68.3	68.3	92	65.9	1	2	248	0.00	29.787 
05:40	68.1	68.1	68.1	92	65.7	1	2	248	0.00	29.788 
05:45	68.1	68.1	68.1	92	65.7	1	2	248	0.00	29.788 
05:50	68.1	68.1	68.1	92	65.7	1	3	248	0.00	29.789 
05:55	68.1	68.1	68.1	92	65.7	1	3	248	0.00	29.793 
06:00	68.1	68.1	68.1	92	65.7	0	3	248	0.00	29.796 
06:05	68.1	68.1	68.1	92	65.7	1	3	248	0.00	29.803 
06:10	68.1	68.1	68.1	92	65.7	1	2	248	0.00	29.804 
06:15	68.1	68.1	68.1	92	65.7	1	2	248	0.00	29.803 
06:20	68.3	68.3	68.3	91	65.6	0	3	248	0.00	29.804 
06:25	68.4	68.4	68.4	91	65.7	1	3	248	0.00	29.804 
06:30	68.6	68.6	68.6	91	65.9	1	2	248	0.00	29.803 
06:35	68.9	68.9	68.9	90	65.8	1	3	248	0.00	29.804 
06:40	69.3	69.3	69.3	90	66.2	1	2	248	0.00	29.808 
06:45	69.3	69.3	69.3	89	65.9	1	2	248	0.00	29.807 
06:50	69.3	69.3	69.3	88	65.6	1	3	270	0.00	29.809 
06:55	69.3	69.3	69.3	88	65.6	1	3	270	0.00	29.812 
07:00	69.3	69.3	69.3	88	65.6	1	2	292	0.00	29.811 
07:05	69.1	69.1	69.1	88	65.4	1	3	292	0.00	29.814 
07:10	69.4	69.4	69.4	88	65.7	1	3	292	0.00	29.820 
07:15	69.8	69.8	69.8	88	66.1	1	3	292	0.00	29.822 
07:20	70.1	70.1	70.1	87	66.0	1	3	292	0.00	29.822 
07:25	70.3	70.3	70.3	85	65.6	1	4	292	0.00	29.823 
07:30	70.8	70.8	70.8	85	66.1	1	2	292	0.00	29.824 
07:35	70.9	70.9	70.9	84	65.8	1	3	292	0.00	29.830 
07:40	71.3	71.3	71.3	83	65.9	1	2	292	0.00	29.832 
07:45	71.5	71.5	71.5	81	65.4	2	4	270	0.00	29.833 
07:50	71.6	71.6	71.6	79	64.7	2	4	270	0.00	29.835 
07:55	72.0	72.0	72.0	79	65.1	1	3	270	0.00	29.835 
08:00	72.1	72.1	72.1	78	64.8	1	3	270	0.00	29.836 
08:05	72.3	72.3	72.3	76	64.3	1	3	315	0.00	29.841 
08:10	72.7	72.7	72.7	78	65.4	1	4	315	0.00	29.844 
08:15	72.7	72.7	72.7	74	63.9	2	4	315	0.00	29.847 
08:20	72.8	72.8	72.8	75	64.4	2	5	315	0.00	29.848 
08:25	73.0	73.0	73.0	74	64.2	2	3	315	0.00	29.849 
08:30	73.3	73.3	73.3	75	64.9	1	3	292	0.00	29.850 
08:35	73.7	73.7	73.7	73	64.5	2	5	292	0.00	29.849 
08:40	74.0	74.0	74.0	72	64.4	1	3	270	0.00	29.850 
08:45	74.2	74.2	74.2	70	63.8	2	4	270	0.00	29.851 
08:50	74.2	74.2	74.2	70	63.8	2	3	248	0.00	29.851 
08:55	74.0	74.0	74.0	69	63.2	2	4	270	0.00	29.852 
09:00	74.2	74.2	74.2	68	62.9	2	5	292	0.00	29.853 
09:05	74.4	74.4	74.4	68	63.1	1	3	338	0.00	29.854 
09:10	74.6	74.6	74.6	68	63.3	2	3	248	0.00	29.854 
09:15	74.2	74.2	74.2	67	62.5	1	3	315	0.00	29.856 
09:20	74.2	74.2	74.2	66	62.1	2	4	270	0.00	29.859 
09:25	74.4	74.4	74.4	64	61.4	1	4	315	0.00	29.860 
09:30	74.4	74.4	74.4	64	61.4	1	5	315	0.00	29.864 
09:35	74.6	74.6	74.6	64	61.6	2	4	270	0.00	29.864 
09:40	74.9	74.9	74.9	64	61.9	1	3	292	0.00	29.864 
09:45	74.6	74.6	74.6	62	60.7	2	3	270	0.00	29.864 
09:50	74.2	74.2	74.2	62	60.3	2	3	270	0.00	29.864 
09:55	74.2	74.2	74.2	62	60.3	1	4	315	0.00	29.865 
10:00	74.4	74.4	74.4	60	59.6	2	5	315	0.00	29.866 
10:05	75.1	75.1	77.3	62	61.2	1	3	315	0.00	29.870 
10:10	75.3	75.3	77.5	60	60.4	2	3	292	0.00	29.870 
10:15	75.4	75.4	77.7	58	59.6	2	5	270	0.00	29.871 
10:20	75.4	75.4	77.7	58	59.6	2	6	315	0.00	29.871 
10:25	75.8	75.8	77.9	58	59.9	2	3	315	0.00	29.870 
10:30	76.1	76.1	78.1	57	59.7	1	4	315	0.00	29.869 
10:35	76.5	76.5	78.4	58	60.6	2	7	315	0.00	29.869 
10:40	77.0	77.0	78.7	53	58.5	3	5	270	0.00	29.870 
10:45	77.2	77.2	78.8	54	59.2	2	5	270	0.00	29.871 
10:50	77.4	77.4	78.9	52	58.4	2	4	270	0.00	29.871 
10:55	77.6	77.6	79.0	50	57.5	3	6	270	0.00	29.870 
11:00	77.6	77.6	78.9	48	56.3	2	4	315	0.00	29.870 
11:05	77.6	77.6	79.0	50	57.5	2	6	315	0.00	29.874 
11:10	78.1	78.1	79.5	53	59.6	2	5	270	0.00	29.873 
11:15	78.3	78.3	79.6	53	59.7	2	5	315	0.00	29.873 
11:20	78.5	78.5	79.6	50	58.3	1	3	315	0.00	29.873 
11:25	78.8	78.8	79.8	50	58.6	2	5	270	0.00	29.876 
11:30	78.6	78.6	79.6	49	57.8	3	5	270	0.00	29.876 
11:35	78.6	78.6	79.5	48	57.2	2	5	292	0.00	29.878 
11:40	78.6	78.6	79.6	49	57.8	2	5	315	0.00	29.877 
11:45	78.6	78.6	79.5	47	56.7	1	3	315	0.00	29.879 
11:50	78.5	78.5	79.5	49	57.7	2	5	270	0.00	29.878 
11:55	78.6	78.6	79.7	50	58.4	2	6	292	0.00	29.880 
12:00	78.8	78.8	79.9	51	59.1	2	5	315	0.00	29.881 
12:05	78.5	78.5	79.4	47	56.6	2	5	315	0.00	29.881 
12:10	78.6	78.6	79.7	50	58.4	1	5	315	0.00	29.880 
12:15	78.6	78.6	79.4	46	56.1	3	4	315	0.00	29.882 
12:20	78.8	78.8	79.8	50	58.6	2	5	315	0.00	29.882 
12:25	78.6	78.6	79.7	51	58.9	2	5	338	0.00	29.880 
12:30	79.0	79.0	79.9	49	58.2	2	6	315	0.00	29.882 
12:35	78.6	78.6	79.6	49	57.8	3	6	315	0.00	29.882 
12:40	78.6	78.6	79.8	52	59.5	2	6	315	0.00	29.881 
12:45	78.8	78.8	79.7	49	58.0	2	10	270	0.00	29.883 
12:50	78.8	78.8	79.8	50	58.6	2	4	270	0.00	29.883 
12:55	78.6	78.6	79.5	48	57.2	4	10	315	0.00	29.883 
13:00	78.8	78.8	79.7	49	58.0	2	3	292	0.00	29.884 
13:05	79.2	79.2	80.1	49	58.4	2	6	315	0.00	29.885 
13:10	79.2	79.2	80.1	49	58.4	3	11	270	0.00	29.885 
13:15	79.2	79.2	79.9	47	57.2	3	7	315	0.00	29.886 
13:20	79.4	79.4	80.2	49	58.5	2	6	270	0.00	29.886 
13:25	79.6	79.6	80.1	46	57.0	2	7	292	0.00	29.883 
13:30	79.4	79.4	79.9	45	56.2	3	6	270	0.00	29.885 
13:35	79.0	79.0	79.6	45	55.8	3	7	270	0.00	29.885 
13:40	79.2	79.2	79.7	44	55.4	2	6	292	0.00	29.884 
13:45	79.2	79.2	79.8	46	56.6	3	6	270	0.00	29.884 
13:50	79.2	79.2	79.8	45	56.0	3	5	270	0.00	29.883 
13:55	79.0	79.0	79.4	42	53.9	2	7	315	0.00	29.884 
14:00	79.2	79.2	79.5	42	54.1	2	5	338	0.00	29.884 
14:05	79.2	79.2	79.4	40	52.8	2	4	315	0.00	29.885 
14:10	79.4	79.4	79.6	41	53.6	2	4	315	0.00	29.885 
14:15	79.6	79.6	80.0	45	56.4	1	3	292	0.00	29.884 
14:20	79.6	79.6	79.9	43	55.1	2	4	292	0.00	29.884 
14:25	79.4	79.4	79.8	43	54.9	2	5	292	0.00	29.885 
14:30	79.2	79.2	79.6	43	54.7	3	9	270	0.00	29.886 
14:35	79.4	79.4	79.8	43	54.9	2	5	315	0.00	29.885 
14:40	79.4	79.4	79.7	42	54.3	3	6	315	0.00	29.886 
14:45	79.2	79.2	79.6	43	54.7	3	7	270	0.00	29.890 
14:50	79.0	79.0	79.6	44	55.2	2	5	315	0.00	29.887 
14:55	79.2	79.2	79.5	41	53.4	2	4	315	0.00	29.886 
15:00	79.2	79.2	79.4	40	52.8	2	5	315	0.00	29.886 
15:05	79.4	79.4	79.5	39	52.3	1	4	292	0.00	29.888 
15:10	79.6	79.6	80.0	44	55.7	2	7	315	0.00	29.887 
15:15	79.4	79.4	79.8	43	54.9	2	4	315	0.00	29.885 
15:20	79.2	79.2	79.7	44	55.4	1	4	292	0.00	29.886 
15:25	79.4	79.4	79.7	42	54.3	3	9	270	0.00	29.885 
15:30	79.0	79.0	79.5	43	54.6	2	5	270	0.00	29.885 
15:35	79.0	79.0	79.5	43	54.6	2	5	315	0.00	29.886 
15:40	79.2	79.2	79.7	44	55.4	2	4	270	0.00	29.886 
15:45	78.8	78.8	79.3	42	53.7	3	5	292	0.00	29.887 
15:50	78.8	78.8	79.4	43	54.4	2	4	292	0.00	29.886 
15:55	79.0	79.0	79.6	44	55.2	2	5	315	0.00	29.887 
16:00	78.8	78.8	79.4	43	54.4	2	5	315	0.00	29.888 
16:05	78.6	78.6	79.4	45	55.5	2	5	292	0.00	29.889 
16:10	79.0	79.0	79.6	44	55.2	1	4	292	0.00	29.891 
16:15	78.8	78.8	79.4	43	54.4	1	4	315	0.00	29.890 
16:20	78.8	78.8	79.5	45	55.6	2	5	270	0.00	29.890 
16:25	78.6	78.6	79.3	44	54.8	3	5	292	0.00	29.894 
16:30	78.5	78.5	79.4	46	56.0	1	3	338	0.00	29.893 
16:35	78.6	78.6	79.4	46	56.1	2	4	315	0.00	29.891 
16:40	78.6	78.6	79.3	44	54.8	3	10	270	0.00	29.890 
16:45	78.3	78.3	79.1	44	54.6	2	6	315	0.00	29.893 
16:50	78.1	78.1	79.0	45	55.0	2	5	292	0.00	29.892 
16:55	78.1	78.1	79.0	45	55.0	2	6	315	0.00	29.895 
17:00	78.1	78.1	79.0	45	55.0	2	5	315	0.00	29.895 
17:05	77.9	77.9	78.7	41	52.3	2	5	315	0.00	29.898 
17:10	77.6	77.6	78.7	43	53.3	2	5	315	0.00	29.899 
17:15	77.4	77.4	78.4	39	50.5	2	4	292	0.00	29.902 
17:20	77.2	77.2	78.3	39	50.3	2	5	292	0.00	29.902 
17:25	77.2	77.2	78.2	37	48.9	2	5	315	0.00	29.904 
17:30	77.0	77.0	78.1	37	48.7	2	6	315	0.00	29.902 
17:35	77.2	77.2	78.3	40	51.0	1	4	270	0.00	29.903 
17:40	77.0	77.0	78.0	36	48.0	2	5	315	0.00	29.904 
17:45	76.7	76.7	77.9	35	47.0	1	3	315	0.00	29.905 
17:50	76.5	76.5	77.9	37	48.3	2	6	315	0.00	29.906 
17:55	76.3	76.3	77.8	38	48.8	1	3	315	0.00	29.906 
18:00	76.3	76.3	77.9	39	49.5	1	3	338	0.00	29.905 
18:05	76.1	76.1	77.7	36	47.2	1	4	315	0.00	29.907 
18:10	76.1	76.1	77.7	37	47.9	1	4	315	0.00	29.906 
18:15	76.0	76.0	77.8	39	49.2	1	3	292	0.00	29.907 
18:20	76.0	76.0	77.8	40	49.9	0	2	292	0.00	29.909 
18:25	75.8	75.8	77.8	41	50.4	1	2	292	0.00	29.912 
18:30	75.8	75.8	77.8	41	50.4	1	3	292	0.00	29.915 
18:35	75.6	75.6	77.7	40	49.6	1	4	292	0.00	29.917 
18:40	75.4	75.4	77.6	41	50.0	1	4	315	0.00	29.919 
18:45	75.3	75.3	77.6	40	49.3	1	3	315	0.00	29.920 
18:50	75.1	75.1	77.5	40	49.1	1	3	292	0.00	29.921 
18:55	74.7	74.7	74.7	41	49.4	2	4	315	0.00	29.921 
19:00	74.6	74.6	74.6	40	48.7	2	5	315	0.00	29.929 
19:05	74.2	74.2	74.2	40	48.3	1	3	292	0.00	29.927 
19:10	74.0	74.0	74.0	40	48.1	1	2	315	0.00	29.923 
19:15	73.7	73.7	73.7	40	47.9	1	3	315	0.00	29.924 
19:20	73.5	73.5	73.5	42	49.0	0	1	292	0.00	29.923 
19:25	73.3	73.3	73.3	43	49.4	0	2	292	0.00	29.925 
19:30	73.2	73.2	73.2	43	49.3	0	2	292	0.00	29.927 
19:35	72.8	72.8	72.8	43	49.0	0	1	292	0.00	29.930 
19:40	72.7	72.7	72.7	44	49.5	0	3	292	0.00	29.935 
19:45	72.5	72.5	72.5	45	49.9	0	1	292	0.00	29.934 
19:50	72.1	72.1	72.1	46	50.2	0	1	292	0.00	29.933 
19:55	71.8	71.8	71.8	46	49.9	0	1	292	0.00	29.933 
20:00	71.5	71.5	71.5	47	50.2	0	1	292	0.00	29.931 
20:05	71.1	71.1	71.1	49	51.0	0	0	---	0.00	29.932 
20:10	70.6	70.6	70.6	50	51.0	0	0	---	0.00	29.930 
20:15	70.1	70.1	70.1	52	51.6	0	0	---	0.00	29.932 
20:20	69.4	69.4	69.4	53	51.5	0	0	---	0.00	29.933 
20:25	68.9	68.9	68.9	54	51.6	0	0	---	0.00	29.934 
20:30	68.4	68.4	68.4	55	51.6	0	0	---	0.00	29.936 
20:35	68.1	68.1	68.1	56	51.8	0	0	---	0.00	29.937 
20:40	67.8	67.8	67.8	56	51.5	0	0	---	0.00	29.939 
20:45	67.6	67.6	67.6	56	51.3	0	0	---	0.00	29.941 
20:50	67.6	67.6	67.6	57	51.8	0	0	---	0.00	29.944 
20:55	67.3	67.3	67.3	58	52.0	0	0	---	0.00	29.949 
21:00	66.9	66.9	66.9	58	51.6	0	0	---	0.00	29.951 
21:05	66.6	66.6	66.6	60	52.3	0	0	---	0.00	29.955 
21:10	66.3	66.3	66.3	62	52.9	0	0	---	0.00	29.955 
21:15	65.8	65.8	65.8	63	52.8	0	0	---	0.00	29.959 
21:20	65.5	65.5	65.5	63	52.6	0	0	---	0.00	29.959 
21:25	65.0	65.0	65.0	65	52.9	0	0	---	0.00	29.963 
21:30	64.3	64.3	64.3	65	52.3	0	0	---	0.00	29.970 
21:35	64.0	64.0	64.0	67	52.8	0	0	---	0.00	29.971 
21:40	63.7	63.7	63.7	68	52.9	0	0	---	0.00	29.972 
21:45	63.4	63.4	63.4	69	53.0	0	0	---	0.00	29.973 
21:50	63.1	63.1	63.1	69	52.8	0	0	---	0.00	29.973 
21:55	62.7	62.7	62.7	70	52.8	0	0	---	0.00	29.972 
22:00	62.4	62.4	62.4	72	53.2	0	0	---	0.00	29.973 
22:05	62.3	62.3	62.3	72	53.2	0	0	---	0.00	29.970 
22:10	62.1	62.1	62.1	73	53.3	0	0	---	0.00	29.970 
22:15	61.8	61.8	61.8	73	53.0	0	0	---	0.00	29.970 
22:20	61.5	61.5	61.5	74	53.1	0	0	---	0.00	29.970 
22:25	61.3	61.3	61.3	76	53.7	0	0	---	0.00	29.973 
22:30	61.2	61.2	61.2	77	53.9	0	0	---	0.00	29.972 
22:35	61.0	61.0	61.0	77	53.7	0	0	---	0.00	29.972 
22:40	60.9	60.9	60.9	78	54.0	0	0	---	0.00	29.972 
22:45	60.7	60.7	60.7	78	53.8	0	0	---	0.00	29.972 
22:50	60.5	60.5	60.5	79	54.0	0	0	---	0.00	29.973 
22:55	60.4	60.4	60.4	79	53.9	0	0	---	0.00	29.973 
23:00	60.4	60.4	60.4	80	54.2	0	0	---	0.00	29.973 
23:05	60.2	60.2	60.2	81	54.3	0	0	---	0.00	29.974 
23:10	60.1	60.1	60.1	82	54.6	0	0	---	0.00	29.976 
23:15	59.9	59.9	59.9	82	54.4	0	0	---	0.00	29.977 
23:20	59.9	59.9	59.9	83	54.7	0	0	---	0.00	29.976 
23:25	59.8	59.8	59.8	83	54.6	0	0	---	0.00	29.980 
23:30	59.6	59.6	59.6	84	54.8	0	0	---	0.00	29.978 
23:35	59.5	59.5	59.5	84	54.7	0	0	---	0.00	29.979 
23:40	59.5	59.5	59.5	84	54.7	0	0	---	0.00	29.982 
23:45	59.3	59.3	59.3	84	54.5	0	0	---	0.00	29.981 
23:50	59.2	59.2	59.2	85	54.7	0	0	---	0.00	29.980 
23:55	59.2	59.2	59.2	86	55.0	0	0	---	0.00	29.982 

CoCoRaHS
IN-AL-39
A2 Web Hosting
Creative Commons License
GoDaddy
Look for:

loaded 2017-10-18 07:17:46 • last modified 2010-11-18 10:43:29
Privacy PolicyDisclaimer
• wx.awcolley.com is powered by PmWiki v.2002016 •
• all content (unless otherwise noted) © 2017 A W Colley